sensor_id;sensor_type;location;lat;lon;timestamp;P1;durP1;ratioP1;P2;durP2;ratioP2
15171;SDS011;7686;52.184;9.280;2023-03-31T00:01:50;0.73;;;0.57;;
15171;SDS011;7686;52.184;9.280;2023-03-31T00:04:18;1.08;;;0.70;;
15171;SDS011;7686;52.184;9.280;2023-03-31T00:06:49;2.78;;;0.70;;
15171;SDS011;7686;52.184;9.280;2023-03-31T00:09:19;0.82;;;0.60;;
15171;SDS011;7686;52.184;9.280;2023-03-31T00:11:49;1.23;;;0.60;;
15171;SDS011;7686;52.184;9.280;2023-03-31T00:14:17;1.20;;;0.80;;
15171;SDS011;7686;52.184;9.280;2023-03-31T00:16:45;1.10;;;0.60;;
15171;SDS011;7686;52.184;9.280;2023-03-31T00:19:12;0.65;;;0.60;;
15171;SDS011;7686;52.184;9.280;2023-03-31T00:21:46;1.40;;;0.70;;
15171;SDS011;7686;52.184;9.280;2023-03-31T00:24:14;0.68;;;0.60;;
15171;SDS011;7686;52.184;9.280;2023-03-31T00:26:41;1.30;;;0.60;;
15171;SDS011;7686;52.184;9.280;2023-03-31T00:29:09;0.80;;;0.65;;
15171;SDS011;7686;52.184;9.280;2023-03-31T00:31:37;1.65;;;0.60;;
15171;SDS011;7686;52.184;9.280;2023-03-31T00:34:05;0.93;;;0.50;;
15171;SDS011;7686;52.184;9.280;2023-03-31T00:36:32;1.05;;;0.60;;
15171;SDS011;7686;52.184;9.280;2023-03-31T00:39:03;0.70;;;0.50;;
15171;SDS011;7686;52.184;9.280;2023-03-31T00:41:35;0.95;;;0.68;;
15171;SDS011;7686;52.184;9.280;2023-03-31T00:44:08;0.57;;;0.47;;
15171;SDS011;7686;52.184;9.280;2023-03-31T00:46:45;4.03;;;0.80;;
15171;SDS011;7686;52.184;9.280;2023-03-31T00:49:32;0.52;;;0.50;;
15171;SDS011;7686;52.184;9.280;2023-03-31T00:54:52;0.80;;;0.70;;
15171;SDS011;7686;52.184;9.280;2023-03-31T00:57:24;1.40;;;0.60;;
15171;SDS011;7686;52.184;9.280;2023-03-31T00:59:55;0.70;;;0.50;;
15171;SDS011;7686;52.184;9.280;2023-03-31T01:02:26;1.98;;;0.65;;
15171;SDS011;7686;52.184;9.280;2023-03-31T01:04:54;0.82;;;0.50;;
15171;SDS011;7686;52.184;9.280;2023-03-31T01:09:56;1.00;;;0.70;;
15171;SDS011;7686;52.184;9.280;2023-03-31T01:12:26;0.43;;;0.43;;
15171;SDS011;7686;52.184;9.280;2023-03-31T01:14:53;1.48;;;0.60;;
15171;SDS011;7686;52.184;9.280;2023-03-31T01:17:20;1.80;;;0.77;;
15171;SDS011;7686;52.184;9.280;2023-03-31T01:20:02;0.50;;;0.50;;
15171;SDS011;7686;52.184;9.280;2023-03-31T01:26:13;1.95;;;0.70;;
15171;SDS011;7686;52.184;9.280;2023-03-31T01:45:08;0.85;;;0.65;;
15171;SDS011;7686;52.184;9.280;2023-03-31T01:47:45;0.63;;;0.60;;
15171;SDS011;7686;52.184;9.280;2023-03-31T01:55:34;1.20;;;0.63;;
15171;SDS011;7686;52.184;9.280;2023-03-31T01:58:28;1.00;;;0.50;;
15171;SDS011;7686;52.184;9.280;2023-03-31T02:03:47;0.75;;;0.60;;
15171;SDS011;7686;52.184;9.280;2023-03-31T02:06:22;0.50;;;0.50;;
15171;SDS011;7686;52.184;9.280;2023-03-31T02:09:02;0.45;;;0.45;;
15171;SDS011;7686;52.184;9.280;2023-03-31T02:11:34;0.52;;;0.52;;
15171;SDS011;7686;52.184;9.280;2023-03-31T02:14:02;0.60;;;0.60;;
15171;SDS011;7686;52.184;9.280;2023-03-31T02:16:33;0.57;;;0.55;;
15171;SDS011;7686;52.184;9.280;2023-03-31T02:19:06;0.50;;;0.47;;
15171;SDS011;7686;52.184;9.280;2023-03-31T02:21:36;0.80;;;0.70;;
15171;SDS011;7686;52.184;9.280;2023-03-31T02:24:06;0.93;;;0.60;;
15171;SDS011;7686;52.184;9.280;2023-03-31T02:26:41;0.75;;;0.47;;
15171;SDS011;7686;52.184;9.280;2023-03-31T02:29:12;0.60;;;0.50;;
15171;SDS011;7686;52.184;9.280;2023-03-31T02:31:42;0.63;;;0.50;;
15171;SDS011;7686;52.184;9.280;2023-03-31T02:34:14;0.40;;;0.40;;
15171;SDS011;7686;52.184;9.280;2023-03-31T02:36:41;0.50;;;0.50;;
15171;SDS011;7686;52.184;9.280;2023-03-31T02:39:11;0.50;;;0.43;;
15171;SDS011;7686;52.184;9.280;2023-03-31T02:41:42;0.50;;;0.50;;
15171;SDS011;7686;52.184;9.280;2023-03-31T02:44:09;0.63;;;0.50;;
15171;SDS011;7686;52.184;9.280;2023-03-31T02:46:36;1.35;;;0.50;;
15171;SDS011;7686;52.184;9.280;2023-03-31T02:49:04;0.60;;;0.52;;
15171;SDS011;7686;52.184;9.280;2023-03-31T02:54:39;0.98;;;0.70;;
15171;SDS011;7686;52.184;9.280;2023-03-31T02:57:37;0.60;;;0.57;;
15171;SDS011;7686;52.184;9.280;2023-03-31T03:00:30;0.75;;;0.50;;
15171;SDS011;7686;52.184;9.280;2023-03-31T03:14:35;0.55;;;0.35;;
15171;SDS011;7686;52.184;9.280;2023-03-31T03:17:14;0.40;;;0.40;;
15171;SDS011;7686;52.184;9.280;2023-03-31T03:19:54;1.17;;;0.50;;
15171;SDS011;7686;52.184;9.280;2023-03-31T03:22:23;1.02;;;0.50;;
15171;SDS011;7686;52.184;9.280;2023-03-31T03:24:50;0.68;;;0.52;;
15171;SDS011;7686;52.184;9.280;2023-03-31T03:27:17;0.77;;;0.40;;
15171;SDS011;7686;52.184;9.280;2023-03-31T03:29:44;0.60;;;0.40;;
15171;SDS011;7686;52.184;9.280;2023-03-31T03:32:12;0.52;;;0.40;;
15171;SDS011;7686;52.184;9.280;2023-03-31T03:34:39;0.65;;;0.57;;
15171;SDS011;7686;52.184;9.280;2023-03-31T03:37:06;0.60;;;0.38;;
15171;SDS011;7686;52.184;9.280;2023-03-31T03:39:32;0.70;;;0.60;;
15171;SDS011;7686;52.184;9.280;2023-03-31T03:41:59;0.35;;;0.35;;
15171;SDS011;7686;52.184;9.280;2023-03-31T03:44:26;0.47;;;0.40;;
15171;SDS011;7686;52.184;9.280;2023-03-31T03:46:52;0.95;;;0.50;;
15171;SDS011;7686;52.184;9.280;2023-03-31T03:49:19;1.20;;;0.50;;
15171;SDS011;7686;52.184;9.280;2023-03-31T03:51:46;0.50;;;0.50;;
15171;SDS011;7686;52.184;9.280;2023-03-31T03:54:12;0.50;;;0.50;;
15171;SDS011;7686;52.184;9.280;2023-03-31T03:56:39;0.75;;;0.50;;
15171;SDS011;7686;52.184;9.280;2023-03-31T03:59:06;0.40;;;0.40;;
15171;SDS011;7686;52.184;9.280;2023-03-31T04:01:32;0.47;;;0.47;;
15171;SDS011;7686;52.184;9.280;2023-03-31T04:03:59;0.50;;;0.50;;
15171;SDS011;7686;52.184;9.280;2023-03-31T04:06:26;1.05;;;0.50;;
15171;SDS011;7686;52.184;9.280;2023-03-31T04:08:52;0.50;;;0.40;;
15171;SDS011;7686;52.184;9.280;2023-03-31T04:11:19;0.40;;;0.40;;
15171;SDS011;7686;52.184;9.280;2023-03-31T04:13:46;0.45;;;0.40;;
15171;SDS011;7686;52.184;9.280;2023-03-31T04:16:13;0.68;;;0.50;;
15171;SDS011;7686;52.184;9.280;2023-03-31T04:18:40;0.45;;;0.40;;
15171;SDS011;7686;52.184;9.280;2023-03-31T04:21:08;0.70;;;0.43;;
15171;SDS011;7686;52.184;9.280;2023-03-31T04:23:38;1.00;;;0.47;;
15171;SDS011;7686;52.184;9.280;2023-03-31T04:26:12;0.77;;;0.50;;
15171;SDS011;7686;52.184;9.280;2023-03-31T04:28:40;0.32;;;0.32;;
15171;SDS011;7686;52.184;9.280;2023-03-31T04:31:08;0.65;;;0.60;;
15171;SDS011;7686;52.184;9.280;2023-03-31T04:33:35;0.30;;;0.30;;
15171;SDS011;7686;52.184;9.280;2023-03-31T04:36:05;0.30;;;0.30;;
15171;SDS011;7686;52.184;9.280;2023-03-31T04:38:48;0.47;;;0.40;;
15171;SDS011;7686;52.184;9.280;2023-03-31T04:41:20;0.93;;;0.40;;
15171;SDS011;7686;52.184;9.280;2023-03-31T04:43:48;0.60;;;0.50;;
15171;SDS011;7686;52.184;9.280;2023-03-31T04:46:15;0.60;;;0.52;;
15171;SDS011;7686;52.184;9.280;2023-03-31T04:48:41;0.80;;;0.60;;
15171;SDS011;7686;52.184;9.280;2023-03-31T04:51:08;0.40;;;0.40;;
15171;SDS011;7686;52.184;9.280;2023-03-31T04:53:35;0.40;;;0.40;;
15171;SDS011;7686;52.184;9.280;2023-03-31T04:56:02;0.50;;;0.40;;
15171;SDS011;7686;52.184;9.280;2023-03-31T04:58:30;0.65;;;0.50;;
15171;SDS011;7686;52.184;9.280;2023-03-31T05:00:56;0.45;;;0.45;;
15171;SDS011;7686;52.184;9.280;2023-03-31T05:03:23;0.38;;;0.38;;
15171;SDS011;7686;52.184;9.280;2023-03-31T05:05:50;0.43;;;0.40;;
15171;SDS011;7686;52.184;9.280;2023-03-31T05:08:16;0.43;;;0.43;;
15171;SDS011;7686;52.184;9.280;2023-03-31T05:10:43;0.45;;;0.45;;
15171;SDS011;7686;52.184;9.280;2023-03-31T05:13:10;0.55;;;0.50;;
15171;SDS011;7686;52.184;9.280;2023-03-31T05:15:37;0.40;;;0.40;;
15171;SDS011;7686;52.184;9.280;2023-03-31T05:18:05;0.77;;;0.40;;
15171;SDS011;7686;52.184;9.280;2023-03-31T05:20:32;0.40;;;0.40;;
15171;SDS011;7686;52.184;9.280;2023-03-31T05:22:59;0.40;;;0.40;;
15171;SDS011;7686;52.184;9.280;2023-03-31T05:25:26;0.30;;;0.30;;
15171;SDS011;7686;52.184;9.280;2023-03-31T05:27:58;0.47;;;0.43;;
15171;SDS011;7686;52.184;9.280;2023-03-31T05:30:25;0.43;;;0.43;;
15171;SDS011;7686;52.184;9.280;2023-03-31T05:32:52;0.60;;;0.40;;
15171;SDS011;7686;52.184;9.280;2023-03-31T05:35:19;0.40;;;0.40;;
15171;SDS011;7686;52.184;9.280;2023-03-31T05:37:46;0.90;;;0.47;;
15171;SDS011;7686;52.184;9.280;2023-03-31T05:40:13;0.40;;;0.40;;
15171;SDS011;7686;52.184;9.280;2023-03-31T05:42:40;0.60;;;0.60;;
15171;SDS011;7686;52.184;9.280;2023-03-31T05:45:08;0.40;;;0.40;;
15171;SDS011;7686;52.184;9.280;2023-03-31T05:47:35;0.30;;;0.30;;
15171;SDS011;7686;52.184;9.280;2023-03-31T05:50:02;0.40;;;0.40;;
15171;SDS011;7686;52.184;9.280;2023-03-31T05:52:32;0.63;;;0.50;;
15171;SDS011;7686;52.184;9.280;2023-03-31T05:54:59;0.30;;;0.30;;
15171;SDS011;7686;52.184;9.280;2023-03-31T05:57:26;0.43;;;0.43;;
15171;SDS011;7686;52.184;9.280;2023-03-31T05:59:52;0.40;;;0.40;;
15171;SDS011;7686;52.184;9.280;2023-03-31T06:02:19;0.75;;;0.47;;
15171;SDS011;7686;52.184;9.280;2023-03-31T06:04:46;0.52;;;0.40;;
15171;SDS011;7686;52.184;9.280;2023-03-31T06:07:13;0.50;;;0.50;;
15171;SDS011;7686;52.184;9.280;2023-03-31T06:09:39;0.40;;;0.40;;
15171;SDS011;7686;52.184;9.280;2023-03-31T06:12:06;0.85;;;0.50;;
15171;SDS011;7686;52.184;9.280;2023-03-31T06:14:33;0.35;;;0.35;;
15171;SDS011;7686;52.184;9.280;2023-03-31T06:17:00;0.57;;;0.30;;
15171;SDS011;7686;52.184;9.280;2023-03-31T06:19:26;0.40;;;0.40;;
15171;SDS011;7686;52.184;9.280;2023-03-31T06:21:53;0.55;;;0.43;;
15171;SDS011;7686;52.184;9.280;2023-03-31T06:24:19;0.30;;;0.30;;
15171;SDS011;7686;52.184;9.280;2023-03-31T06:26:47;0.77;;;0.40;;
15171;SDS011;7686;52.184;9.280;2023-03-31T06:29:13;0.40;;;0.40;;
15171;SDS011;7686;52.184;9.280;2023-03-31T06:31:40;0.35;;;0.35;;
15171;SDS011;7686;52.184;9.280;2023-03-31T06:34:07;0.80;;;0.50;;
15171;SDS011;7686;52.184;9.280;2023-03-31T06:36:33;0.68;;;0.45;;
15171;SDS011;7686;52.184;9.280;2023-03-31T06:39:00;0.77;;;0.50;;
15171;SDS011;7686;52.184;9.280;2023-03-31T06:41:27;0.52;;;0.30;;
15171;SDS011;7686;52.184;9.280;2023-03-31T06:43:54;0.88;;;0.50;;
15171;SDS011;7686;52.184;9.280;2023-03-31T06:46:21;0.50;;;0.50;;
15171;SDS011;7686;52.184;9.280;2023-03-31T06:48:47;0.50;;;0.47;;
15171;SDS011;7686;52.184;9.280;2023-03-31T06:51:14;1.55;;;0.57;;
15171;SDS011;7686;52.184;9.280;2023-03-31T06:53:41;0.50;;;0.30;;
15171;SDS011;7686;52.184;9.280;2023-03-31T06:56:08;0.60;;;0.40;;
15171;SDS011;7686;52.184;9.280;2023-03-31T06:58:34;0.40;;;0.40;;
15171;SDS011;7686;52.184;9.280;2023-03-31T07:01:02;1.23;;;0.50;;
15171;SDS011;7686;52.184;9.280;2023-03-31T07:03:31;1.90;;;0.65;;
15171;SDS011;7686;52.184;9.280;2023-03-31T07:05:58;1.70;;;0.50;;
15171;SDS011;7686;52.184;9.280;2023-03-31T07:08:25;0.60;;;0.55;;
15171;SDS011;7686;52.184;9.280;2023-03-31T07:10:53;0.95;;;0.50;;
15171;SDS011;7686;52.184;9.280;2023-03-31T07:13:23;0.57;;;0.40;;
15171;SDS011;7686;52.184;9.280;2023-03-31T07:15:50;0.52;;;0.47;;
15171;SDS011;7686;52.184;9.280;2023-03-31T07:18:17;1.02;;;0.43;;
15171;SDS011;7686;52.184;9.280;2023-03-31T07:20:47;1.10;;;0.63;;
15171;SDS011;7686;52.184;9.280;2023-03-31T07:23:15;1.58;;;0.50;;
15171;SDS011;7686;52.184;9.280;2023-03-31T07:25:42;1.33;;;0.60;;
15171;SDS011;7686;52.184;9.280;2023-03-31T07:28:10;4.10;;;0.75;;
15171;SDS011;7686;52.184;9.280;2023-03-31T07:30:37;1.75;;;0.50;;
15171;SDS011;7686;52.184;9.280;2023-03-31T07:33:05;1.35;;;0.70;;
15171;SDS011;7686;52.184;9.280;2023-03-31T07:35:32;0.98;;;0.52;;
15171;SDS011;7686;52.184;9.280;2023-03-31T07:38:02;1.25;;;0.32;;
15171;SDS011;7686;52.184;9.280;2023-03-31T07:40:29;0.68;;;0.50;;
15171;SDS011;7686;52.184;9.280;2023-03-31T07:42:56;1.05;;;0.60;;
15171;SDS011;7686;52.184;9.280;2023-03-31T07:45:23;1.90;;;0.55;;
15171;SDS011;7686;52.184;9.280;2023-03-31T07:47:51;1.35;;;0.50;;
15171;SDS011;7686;52.184;9.280;2023-03-31T07:50:18;1.58;;;0.60;;
15171;SDS011;7686;52.184;9.280;2023-03-31T07:52:45;1.08;;;0.50;;
15171;SDS011;7686;52.184;9.280;2023-03-31T07:55:12;0.68;;;0.43;;
15171;SDS011;7686;52.184;9.280;2023-03-31T07:57:39;0.95;;;0.38;;
15171;SDS011;7686;52.184;9.280;2023-03-31T08:00:07;0.80;;;0.50;;
15171;SDS011;7686;52.184;9.280;2023-03-31T08:02:37;0.88;;;0.40;;
15171;SDS011;7686;52.184;9.280;2023-03-31T08:05:06;1.02;;;0.50;;
15171;SDS011;7686;52.184;9.280;2023-03-31T08:07:36;0.98;;;0.40;;
15171;SDS011;7686;52.184;9.280;2023-03-31T08:10:05;0.70;;;0.45;;
15171;SDS011;7686;52.184;9.280;2023-03-31T08:12:33;1.42;;;0.55;;
15171;SDS011;7686;52.184;9.280;2023-03-31T08:14:59;1.25;;;0.60;;
15171;SDS011;7686;52.184;9.280;2023-03-31T08:17:26;0.60;;;0.50;;
15171;SDS011;7686;52.184;9.280;2023-03-31T08:19:53;0.40;;;0.40;;
15171;SDS011;7686;52.184;9.280;2023-03-31T08:22:19;2.03;;;0.57;;
15171;SDS011;7686;52.184;9.280;2023-03-31T08:24:48;0.45;;;0.40;;
15171;SDS011;7686;52.184;9.280;2023-03-31T08:27:15;1.38;;;0.68;;
15171;SDS011;7686;52.184;9.280;2023-03-31T08:29:42;2.70;;;0.70;;
15171;SDS011;7686;52.184;9.280;2023-03-31T08:32:08;0.65;;;0.60;;
15171;SDS011;7686;52.184;9.280;2023-03-31T08:34:35;0.75;;;0.50;;
15171;SDS011;7686;52.184;9.280;2023-03-31T08:37:03;0.40;;;0.40;;
15171;SDS011;7686;52.184;9.280;2023-03-31T08:39:31;0.47;;;0.45;;
15171;SDS011;7686;52.184;9.280;2023-03-31T08:41:59;0.95;;;0.50;;
15171;SDS011;7686;52.184;9.280;2023-03-31T08:44:37;0.85;;;0.50;;
15171;SDS011;7686;52.184;9.280;2023-03-31T08:47:24;0.38;;;0.38;;
15171;SDS011;7686;52.184;9.280;2023-03-31T08:49:55;0.30;;;0.30;;
15171;SDS011;7686;52.184;9.280;2023-03-31T08:52:32;0.30;;;0.30;;
15171;SDS011;7686;52.184;9.280;2023-03-31T08:55:04;0.40;;;0.40;;
15171;SDS011;7686;52.184;9.280;2023-03-31T09:00:39;2.17;;;0.60;;
15171;SDS011;7686;52.184;9.280;2023-03-31T09:03:17;2.58;;;0.60;;
15171;SDS011;7686;52.184;9.280;2023-03-31T09:05:58;3.60;;;0.75;;
15171;SDS011;7686;52.184;9.280;2023-03-31T09:08:38;2.88;;;0.60;;
15171;SDS011;7686;52.184;9.280;2023-03-31T09:13:53;1.60;;;0.52;;
15171;SDS011;7686;52.184;9.280;2023-03-31T09:17:05;2.00;;;1.02;;
15171;SDS011;7686;52.184;9.280;2023-03-31T09:19:56;3.47;;;0.90;;
15171;SDS011;7686;52.184;9.280;2023-03-31T09:22:31;1.17;;;0.70;;
15171;SDS011;7686;52.184;9.280;2023-03-31T09:25:18;2.80;;;0.75;;
15171;SDS011;7686;52.184;9.280;2023-03-31T09:27:52;2.88;;;0.68;;
15171;SDS011;7686;52.184;9.280;2023-03-31T09:30:26;2.25;;;0.70;;
15171;SDS011;7686;52.184;9.280;2023-03-31T09:33:13;3.15;;;0.80;;
15171;SDS011;7686;52.184;9.280;2023-03-31T09:35:44;3.50;;;0.95;;
15171;SDS011;7686;52.184;9.280;2023-03-31T09:38:12;5.10;;;1.20;;
15171;SDS011;7686;52.184;9.280;2023-03-31T09:40:41;4.75;;;1.20;;
15171;SDS011;7686;52.184;9.280;2023-03-31T09:43:17;6.18;;;1.27;;
15171;SDS011;7686;52.184;9.280;2023-03-31T09:45:49;4.03;;;1.23;;
15171;SDS011;7686;52.184;9.280;2023-03-31T09:48:34;4.10;;;1.13;;
15171;SDS011;7686;52.184;9.280;2023-03-31T09:51:06;3.08;;;1.00;;
15171;SDS011;7686;52.184;9.280;2023-03-31T09:53:41;2.20;;;0.90;;
15171;SDS011;7686;52.184;9.280;2023-03-31T09:56:20;4.00;;;1.10;;
15171;SDS011;7686;52.184;9.280;2023-03-31T09:59:01;6.07;;;1.08;;
15171;SDS011;7686;52.184;9.280;2023-03-31T10:01:28;2.25;;;1.00;;
15171;SDS011;7686;52.184;9.280;2023-03-31T10:03:55;3.28;;;1.00;;
15171;SDS011;7686;52.184;9.280;2023-03-31T10:06:23;4.80;;;1.10;;
15171;SDS011;7686;52.184;9.280;2023-03-31T10:08:54;2.85;;;1.13;;
15171;SDS011;7686;52.184;9.280;2023-03-31T10:11:24;4.40;;;1.25;;
15171;SDS011;7686;52.184;9.280;2023-03-31T10:14:13;4.03;;;1.17;;
15171;SDS011;7686;52.184;9.280;2023-03-31T10:16:50;2.97;;;1.00;;
15171;SDS011;7686;52.184;9.280;2023-03-31T10:19:23;4.25;;;1.15;;
15171;SDS011;7686;52.184;9.280;2023-03-31T10:22:34;4.22;;;1.17;;
15171;SDS011;7686;52.184;9.280;2023-03-31T10:24:51;2.30;;;1.00;;
15171;SDS011;7686;52.184;9.280;2023-03-31T10:27:22;2.15;;;0.77;;
15171;SDS011;7686;52.184;9.280;2023-03-31T10:29:57;2.60;;;1.00;;
15171;SDS011;7686;52.184;9.280;2023-03-31T10:32:32;4.10;;;1.50;;
15171;SDS011;7686;52.184;9.280;2023-03-31T10:35:05;4.88;;;1.00;;
15171;SDS011;7686;52.184;9.280;2023-03-31T10:37:48;2.67;;;0.98;;
15171;SDS011;7686;52.184;9.280;2023-03-31T10:42:49;2.08;;;0.88;;
15171;SDS011;7686;52.184;9.280;2023-03-31T10:45:27;4.25;;;1.20;;
15171;SDS011;7686;52.184;9.280;2023-03-31T10:48:03;2.42;;;0.93;;
15171;SDS011;7686;52.184;9.280;2023-03-31T10:50:32;1.95;;;0.82;;
15171;SDS011;7686;52.184;9.280;2023-03-31T10:53:05;2.05;;;1.08;;
15171;SDS011;7686;52.184;9.280;2023-03-31T10:55:58;3.90;;;0.95;;
15171;SDS011;7686;52.184;9.280;2023-03-31T11:01:38;4.45;;;1.27;;
15171;SDS011;7686;52.184;9.280;2023-03-31T11:29:39;2.22;;;0.98;;
15171;SDS011;7686;52.184;9.280;2023-03-31T11:35:02;5.70;;;1.10;;
15171;SDS011;7686;52.184;9.280;2023-03-31T11:37:46;4.65;;;1.08;;
15171;SDS011;7686;52.184;9.280;2023-03-31T11:43:27;2.67;;;1.00;;
15171;SDS011;7686;52.184;9.280;2023-03-31T11:46:15;2.95;;;1.00;;
15171;SDS011;7686;52.184;9.280;2023-03-31T11:49:15;2.63;;;0.75;;
15171;SDS011;7686;52.184;9.280;2023-03-31T11:57:09;2.53;;;1.00;;
15171;SDS011;7686;52.184;9.280;2023-03-31T11:59:44;3.47;;;0.90;;
15171;SDS011;7686;52.184;9.280;2023-03-31T12:02:19;4.78;;;0.93;;
15171;SDS011;7686;52.184;9.280;2023-03-31T12:04:57;3.17;;;1.00;;
15171;SDS011;7686;52.184;9.280;2023-03-31T12:07:31;1.52;;;0.70;;
15171;SDS011;7686;52.184;9.280;2023-03-31T12:12:56;10.77;;;1.90;;
15171;SDS011;7686;52.184;9.280;2023-03-31T12:15:31;12.75;;;2.70;;
15171;SDS011;7686;52.184;9.280;2023-03-31T12:18:12;15.00;;;3.55;;
15171;SDS011;7686;52.184;9.280;2023-03-31T12:20:40;16.13;;;4.70;;
15171;SDS011;7686;52.184;9.280;2023-03-31T12:23:21;20.45;;;5.68;;
15171;SDS011;7686;52.184;9.280;2023-03-31T12:28:28;25.73;;;6.75;;
15171;SDS011;7686;52.184;9.280;2023-03-31T12:30:57;22.75;;;7.30;;
15171;SDS011;7686;52.184;9.280;2023-03-31T12:33:30;19.75;;;7.00;;
15171;SDS011;7686;52.184;9.280;2023-03-31T12:44:51;23.40;;;7.38;;
15171;SDS011;7686;52.184;9.280;2023-03-31T12:55:53;25.92;;;8.57;;
15171;SDS011;7686;52.184;9.280;2023-03-31T13:06:02;24.60;;;8.95;;
15171;SDS011;7686;52.184;9.280;2023-03-31T13:13:59;18.48;;;7.05;;
15171;SDS011;7686;52.184;9.280;2023-03-31T13:16:31;23.90;;;8.45;;
15171;SDS011;7686;52.184;9.280;2023-03-31T13:19:00;20.50;;;8.10;;
15171;SDS011;7686;52.184;9.280;2023-03-31T13:21:26;21.02;;;8.48;;
15171;SDS011;7686;52.184;9.280;2023-03-31T13:23:53;21.50;;;7.90;;
15171;SDS011;7686;52.184;9.280;2023-03-31T13:34:46;21.33;;;7.15;;
15171;SDS011;7686;52.184;9.280;2023-03-31T13:43:12;17.27;;;7.07;;
15171;SDS011;7686;52.184;9.280;2023-03-31T13:46:39;17.15;;;6.57;;
15171;SDS011;7686;52.184;9.280;2023-03-31T13:49:14;14.48;;;6.20;;
15171;SDS011;7686;52.184;9.280;2023-03-31T13:55:08;14.85;;;5.72;;
15171;SDS011;7686;52.184;9.280;2023-03-31T13:58:09;13.55;;;5.57;;
15171;SDS011;7686;52.184;9.280;2023-03-31T14:03:52;18.50;;;5.80;;
15171;SDS011;7686;52.184;9.280;2023-03-31T14:07:12;11.88;;;4.90;;
15171;SDS011;7686;52.184;9.280;2023-03-31T14:09:44;15.90;;;5.45;;
15171;SDS011;7686;52.184;9.280;2023-03-31T14:12:18;15.00;;;5.07;;
15171;SDS011;7686;52.184;9.280;2023-03-31T14:14:56;10.98;;;4.68;;
15171;SDS011;7686;52.184;9.280;2023-03-31T14:17:25;11.70;;;4.68;;
15171;SDS011;7686;52.184;9.280;2023-03-31T14:25:58;11.63;;;4.57;;
15171;SDS011;7686;52.184;9.280;2023-03-31T14:31:31;16.10;;;4.90;;
15171;SDS011;7686;52.184;9.280;2023-03-31T14:36:57;14.90;;;4.82;;
15171;SDS011;7686;52.184;9.280;2023-03-31T14:39:31;15.73;;;5.07;;
15171;SDS011;7686;52.184;9.280;2023-03-31T14:42:02;11.43;;;4.78;;
15171;SDS011;7686;52.184;9.280;2023-03-31T14:44:32;10.73;;;4.75;;
15171;SDS011;7686;52.184;9.280;2023-03-31T14:46:59;12.80;;;4.47;;
15171;SDS011;7686;52.184;9.280;2023-03-31T14:49:48;12.93;;;4.43;;
15171;SDS011;7686;52.184;9.280;2023-03-31T14:52:23;14.13;;;4.20;;
15171;SDS011;7686;52.184;9.280;2023-03-31T14:54:51;14.45;;;4.85;;
15171;SDS011;7686;52.184;9.280;2023-03-31T14:57:19;12.75;;;4.05;;
15171;SDS011;7686;52.184;9.280;2023-03-31T14:59:53;12.30;;;4.38;;
15171;SDS011;7686;52.184;9.280;2023-03-31T15:02:34;9.68;;;3.85;;
15171;SDS011;7686;52.184;9.280;2023-03-31T15:05:03;11.57;;;4.15;;
15171;SDS011;7686;52.184;9.280;2023-03-31T15:07:33;15.25;;;4.35;;
15171;SDS011;7686;52.184;9.280;2023-03-31T15:10:01;15.70;;;4.28;;
15171;SDS011;7686;52.184;9.280;2023-03-31T15:12:29;14.63;;;4.82;;
15171;SDS011;7686;52.184;9.280;2023-03-31T15:14:57;16.48;;;4.53;;
15171;SDS011;7686;52.184;9.280;2023-03-31T15:17:30;15.02;;;4.32;;
15171;SDS011;7686;52.184;9.280;2023-03-31T15:20:19;20.88;;;4.35;;
15171;SDS011;7686;52.184;9.280;2023-03-31T15:23:00;18.23;;;4.20;;
15171;SDS011;7686;52.184;9.280;2023-03-31T15:25:31;17.52;;;5.05;;
15171;SDS011;7686;52.184;9.280;2023-03-31T15:28:03;18.90;;;4.78;;
15171;SDS011;7686;52.184;9.280;2023-03-31T15:30:32;18.35;;;4.35;;
15171;SDS011;7686;52.184;9.280;2023-03-31T15:33:01;20.08;;;4.60;;
15171;SDS011;7686;52.184;9.280;2023-03-31T15:35:43;14.60;;;4.28;;
15171;SDS011;7686;52.184;9.280;2023-03-31T15:38:11;20.15;;;4.32;;
15171;SDS011;7686;52.184;9.280;2023-03-31T15:40:43;15.82;;;4.45;;
15171;SDS011;7686;52.184;9.280;2023-03-31T15:43:15;16.33;;;4.22;;
15171;SDS011;7686;52.184;9.280;2023-03-31T15:45:50;16.42;;;4.28;;
15171;SDS011;7686;52.184;9.280;2023-03-31T15:48:33;17.13;;;3.70;;
15171;SDS011;7686;52.184;9.280;2023-03-31T15:53:36;12.68;;;4.07;;
15171;SDS011;7686;52.184;9.280;2023-03-31T15:56:04;16.02;;;4.03;;
15171;SDS011;7686;52.184;9.280;2023-03-31T16:01:55;15.38;;;3.53;;
15171;SDS011;7686;52.184;9.280;2023-03-31T16:04:28;13.18;;;3.55;;
15171;SDS011;7686;52.184;9.280;2023-03-31T16:06:59;12.88;;;3.85;;
15171;SDS011;7686;52.184;9.280;2023-03-31T16:12:30;8.68;;;3.05;;
15171;SDS011;7686;52.184;9.280;2023-03-31T16:15:04;14.80;;;3.90;;
15171;SDS011;7686;52.184;9.280;2023-03-31T16:17:49;12.98;;;3.67;;
15171;SDS011;7686;52.184;9.280;2023-03-31T16:20:27;11.43;;;3.35;;
15171;SDS011;7686;52.184;9.280;2023-03-31T16:23:27;10.75;;;3.47;;
15171;SDS011;7686;52.184;9.280;2023-03-31T16:25:59;12.70;;;3.30;;
15171;SDS011;7686;52.184;9.280;2023-03-31T16:28:30;10.88;;;3.42;;
15171;SDS011;7686;52.184;9.280;2023-03-31T16:30:59;7.75;;;3.10;;
15171;SDS011;7686;52.184;9.280;2023-03-31T16:33:30;8.48;;;3.28;;
15171;SDS011;7686;52.184;9.280;2023-03-31T16:36:17;9.70;;;3.05;;
15171;SDS011;7686;52.184;9.280;2023-03-31T16:38:44;7.65;;;3.10;;
15171;SDS011;7686;52.184;9.280;2023-03-31T16:41:11;11.20;;;3.50;;
15171;SDS011;7686;52.184;9.280;2023-03-31T16:43:40;9.45;;;2.97;;
15171;SDS011;7686;52.184;9.280;2023-03-31T16:46:09;10.52;;;3.30;;
15171;SDS011;7686;52.184;9.280;2023-03-31T16:48:36;9.18;;;3.13;;
15171;SDS011;7686;52.184;9.280;2023-03-31T16:51:03;10.05;;;3.00;;
15171;SDS011;7686;52.184;9.280;2023-03-31T16:53:31;8.60;;;2.85;;
15171;SDS011;7686;52.184;9.280;2023-03-31T16:55:59;9.00;;;3.00;;
15171;SDS011;7686;52.184;9.280;2023-03-31T16:58:26;10.18;;;3.15;;
15171;SDS011;7686;52.184;9.280;2023-03-31T17:00:54;9.18;;;2.88;;
15171;SDS011;7686;52.184;9.280;2023-03-31T17:03:24;9.00;;;3.03;;
15171;SDS011;7686;52.184;9.280;2023-03-31T17:05:52;12.88;;;3.08;;
15171;SDS011;7686;52.184;9.280;2023-03-31T17:08:24;9.23;;;3.35;;
15171;SDS011;7686;52.184;9.280;2023-03-31T17:10:58;12.02;;;3.15;;
15171;SDS011;7686;52.184;9.280;2023-03-31T17:13:26;5.38;;;2.50;;
15171;SDS011;7686;52.184;9.280;2023-03-31T17:15:52;8.50;;;2.85;;
15171;SDS011;7686;52.184;9.280;2023-03-31T17:18:33;8.73;;;2.78;;
15171;SDS011;7686;52.184;9.280;2023-03-31T17:21:05;7.68;;;2.28;;
15171;SDS011;7686;52.184;9.280;2023-03-31T17:23:33;9.98;;;2.92;;
15171;SDS011;7686;52.184;9.280;2023-03-31T17:26:01;7.78;;;2.60;;
15171;SDS011;7686;52.184;9.280;2023-03-31T17:28:29;7.32;;;2.65;;
15171;SDS011;7686;52.184;9.280;2023-03-31T17:30:56;6.72;;;2.78;;
15171;SDS011;7686;52.184;9.280;2023-03-31T17:33:23;5.70;;;2.60;;
15171;SDS011;7686;52.184;9.280;2023-03-31T17:35:54;9.43;;;2.55;;
15171;SDS011;7686;52.184;9.280;2023-03-31T17:38:22;7.28;;;2.80;;
15171;SDS011;7686;52.184;9.280;2023-03-31T17:40:48;6.70;;;2.53;;
15171;SDS011;7686;52.184;9.280;2023-03-31T17:43:15;7.25;;;2.78;;
15171;SDS011;7686;52.184;9.280;2023-03-31T17:45:42;6.85;;;2.42;;
15171;SDS011;7686;52.184;9.280;2023-03-31T17:48:08;8.02;;;2.85;;
15171;SDS011;7686;52.184;9.280;2023-03-31T17:50:35;7.55;;;2.50;;
15171;SDS011;7686;52.184;9.280;2023-03-31T17:53:03;7.53;;;2.63;;
15171;SDS011;7686;52.184;9.280;2023-03-31T17:55:37;7.20;;;2.92;;
15171;SDS011;7686;52.184;9.280;2023-03-31T17:58:04;5.90;;;2.50;;
15171;SDS011;7686;52.184;9.280;2023-03-31T18:00:33;6.13;;;2.40;;
15171;SDS011;7686;52.184;9.280;2023-03-31T18:03:00;5.60;;;2.30;;
15171;SDS011;7686;52.184;9.280;2023-03-31T18:05:27;6.45;;;2.58;;
15171;SDS011;7686;52.184;9.280;2023-03-31T18:07:54;6.20;;;2.30;;
15171;SDS011;7686;52.184;9.280;2023-03-31T18:10:21;5.65;;;2.33;;
15171;SDS011;7686;52.184;9.280;2023-03-31T18:12:48;7.38;;;2.40;;
15171;SDS011;7686;52.184;9.280;2023-03-31T18:15:14;6.38;;;2.30;;
15171;SDS011;7686;52.184;9.280;2023-03-31T18:17:41;5.35;;;2.10;;